Lake Mitchell, South Dakota
Current Conditions -  °F | °C
As of 10:53 AM on Thursday 30 Oct 2014 (Local Time) from KMHE Reporting Station
Scattered Clouds Scattered Clouds  
Wind Chill: 40°   Ceiling: Unl
Heat Index: 47°   Visibility: 10mi
Dew Point: 38°   Wind: 20mph
Humidity: 71%   Direction: 340°NNW
Pressure: 30.16"   Gusts: 28mph
Location:  43.7034°N, 98.0626°W
Report Text: KMHE 301553Z AUTO 34017G24KT 10SM SCT015 08/03 A3016 RMK AO2 SLP218 T00830033
Loading
Personal Weather Stations






























Interactive Weather Map
Tropical Storm Tracking
New forecast layout! Learn more

10-Day Weather Forecast

Advertisements
Track Severe Weather on mobile